Etusivu
METAR-TAF:

METAR-TAF

Lentoasemat :

Ljungbyhed, Ruotsi

Leveyspiiri: 56-04N, Pituuspiiri: 013-12E, korkeus merenpinnasta: 43 m

Tämänhetkinen sää

Tämä raportti tehtiin 12 minuuttia sitten, kello 17.20 UTC
Tuuli 5 kn pohjoisen/luoteesta
Lämpötila 19°C
Kosteus 56%
Ilmanpaine 1029 hPa
Näkyvyys 10 km tai enemmän

METAR: ESTL 191720Z AUTO 33005KT 9999 NCD 19/10 Q1029

Aika: 19:32 (17:32 UTC)

Sääennuste

Tämä raportti tehtiin 6 tuntia ja 34 minuuttia sitten, kello 10.58 UTC
Ennuste voimassa 19. päivästä klo 12 UTC - 19. päivään klo 15 UTC
Tuuli 5 kn lännestä/luoteesta
Näkyvyys 10 km tai enemmän
Muutamia pilviä 2000 ft:n korkeudessa

TAF: ESTL 191058Z 1912/1915 30005KT 9999 FEW020

Säähavainnot ja -ennusteet yli 4000 lentoasemalta (METAR- ja TAF-raportit).

Käytössä olevat sääasemat on merkitty karttaan keltaisilla ja punaisilla pisteillä.

Aseta hiiri pisteen päälle nähdäksesi sääaseman nimen.

Klikkaa sitten nähdäksesi säähavainnot ja -ennusteet.

Kartan vaihtaminen: klikkaa mustalla rastilla varustettuja vihreitä pisteitä, niin voit zoomata sisään; viivalla varustettua vihreää pistettä, niin voit zoomata ulos tai vihreitä nuolia, niin pääset viereisille kartoille.


METAR-TAF: